createdAt,value
2022-08-26T00:02:12.779Z,5.30
2022-08-26T00:04:42.484Z,5.93
2022-08-26T00:07:11.435Z,5.65
2022-08-26T00:09:40.138Z,5.57
2022-08-26T00:12:12.450Z,5.97
2022-08-26T00:14:42.156Z,5.68
2022-08-26T00:17:10.682Z,5.65
2022-08-26T00:19:39.353Z,5.28
2022-08-26T00:22:10.142Z,5.75
2022-08-26T00:24:39.720Z,5.35
2022-08-26T00:27:16.125Z,5.70
2022-08-26T00:29:45.485Z,5.68
2022-08-26T00:32:13.692Z,5.30
2022-08-26T00:34:42.602Z,5.78
2022-08-26T00:37:14.532Z,5.85
2022-08-26T00:39:44.392Z,5.75
2022-08-26T00:42:13.993Z,5.95
2022-08-26T00:44:42.173Z,5.93
2022-08-26T00:47:17.844Z,6.40
2022-08-26T00:49:48.433Z,5.22
2022-08-26T00:52:23.052Z,5.47
2022-08-26T00:54:54.932Z,5.68
2022-08-26T00:57:24.363Z,5.78
2022-08-26T00:59:56.826Z,6.43
2022-08-26T01:02:25.907Z,5.80
2022-08-26T01:05:01.207Z,6.63
2022-08-26T01:07:35.343Z,6.13
2022-08-26T01:10:06.989Z,5.97
2022-08-26T01:12:41.344Z,5.80
2022-08-26T01:15:14.892Z,5.57
2022-08-26T01:17:44.106Z,6.15
2022-08-26T01:20:24.785Z,5.72
2022-08-26T01:22:57.872Z,5.90
2022-08-26T01:25:29.574Z,5.55
2022-08-26T01:28:00.032Z,5.63
2022-08-26T01:30:29.991Z,6.25
2022-08-26T01:33:00.386Z,6.07
2022-08-26T01:35:29.512Z,6.10
2022-08-26T01:38:00.832Z,5.63
2022-08-26T01:40:33.738Z,5.50
2022-08-26T01:43:03.634Z,5.75
2022-08-26T01:45:35.097Z,6.15
2022-08-26T01:48:06.766Z,6.03
2022-08-26T01:50:38.214Z,6.00
2022-08-26T01:53:11.063Z,5.50
2022-08-26T01:55:42.723Z,6.07
2022-08-26T01:58:15.111Z,5.68
2022-08-26T02:00:44.132Z,6.57
2022-08-26T02:03:18.916Z,6.60
2022-08-26T02:05:51.486Z,6.20
2022-08-26T02:08:24.710Z,5.72
2022-08-26T02:10:54.824Z,6.03
2022-08-26T02:13:24.452Z,6.35
2022-08-26T02:15:54.271Z,6.18
2022-08-26T02:18:23.753Z,6.25
2022-08-26T02:20:55.344Z,5.68
2022-08-26T02:23:25.971Z,5.20
2022-08-26T02:25:58.064Z,5.85
2022-08-26T02:28:29.902Z,6.30
2022-08-26T02:30:58.201Z,5.53
2022-08-26T02:33:29.313Z,6.47
2022-08-26T02:35:57.689Z,6.55
2022-08-26T02:38:27.885Z,6.22
2022-08-26T02:40:56.522Z,6.22
2022-08-26T02:43:32.665Z,5.63
2022-08-26T02:46:02.508Z,5.88
2022-08-26T02:48:31.724Z,6.65
2022-08-26T02:51:01.973Z,5.90
2022-08-26T02:53:34.028Z,6.30
2022-08-26T02:56:04.883Z,6.40
2022-08-26T02:58:33.353Z,6.45
2022-08-26T03:01:04.913Z,5.63
2022-08-26T03:03:34.522Z,6.15
2022-08-26T03:06:02.972Z,6.32
2022-08-26T03:08:32.573Z,5.60
2022-08-26T03:11:01.531Z,5.25
2022-08-26T03:13:30.332Z,5.78
2022-08-26T03:15:59.179Z,5.35
2022-08-26T03:18:27.466Z,6.47
2022-08-26T03:20:55.693Z,5.35
2022-08-26T03:23:23.885Z,5.95
2022-08-26T03:25:54.083Z,6.20
2022-08-26T03:28:22.293Z,6.00
2022-08-26T03:30:49.471Z,6.25
2022-08-26T03:33:19.216Z,5.97
2022-08-26T03:35:50.473Z,6.45
2022-08-26T03:38:19.921Z,6.13
2022-08-26T03:40:48.572Z,6.50
2022-08-26T03:43:21.589Z,6.63
2022-08-26T03:45:50.128Z,6.28
2022-08-26T03:48:19.583Z,6.30
2022-08-26T03:50:47.731Z,7.20
2022-08-26T03:53:17.035Z,5.55
2022-08-26T03:55:49.224Z,6.55
2022-08-26T03:58:24.322Z,6.75
2022-08-26T04:00:55.759Z,6.10
2022-08-26T04:03:38.209Z,6.15
2022-08-26T04:06:06.982Z,6.18
2022-08-26T04:08:35.167Z,5.85
2022-08-26T04:11:03.814Z,6.63
2022-08-26T04:13:34.108Z,6.28
2022-08-26T04:16:02.355Z,6.07
2022-08-26T04:18:37.075Z,6.50
2022-08-26T04:21:07.900Z,6.97
2022-08-26T04:23:47.496Z,6.90
2022-08-26T04:26:16.724Z,6.55
2022-08-26T04:28:46.315Z,6.40
2022-08-26T04:31:17.583Z,6.90
2022-08-26T04:33:49.589Z,7.10
2022-08-26T04:36:20.081Z,6.45
2022-08-26T04:38:49.812Z,6.57
2022-08-26T04:41:20.804Z,6.93
2022-08-26T04:43:50.944Z,6.32
2022-08-26T04:46:22.924Z,6.78
2022-08-26T04:48:52.802Z,6.40
2022-08-26T04:51:28.115Z,6.55
2022-08-26T04:53:57.191Z,6.82
2022-08-26T04:56:26.764Z,6.47
2022-08-26T04:58:56.671Z,6.03
2022-08-26T05:01:24.892Z,6.50
2022-08-26T05:03:54.919Z,6.50
2022-08-26T05:06:23.141Z,6.50
2022-08-26T05:08:51.711Z,6.93
2022-08-26T05:11:22.263Z,6.50
2022-08-26T05:13:50.862Z,6.78
2022-08-26T05:16:20.725Z,7.00
2022-08-26T05:18:49.072Z,7.00
2022-08-26T05:21:20.149Z,6.95
2022-08-26T05:23:49.522Z,7.13
2022-08-26T05:26:17.712Z,6.95
2022-08-26T05:28:51.693Z,6.28
2022-08-26T05:31:27.288Z,6.65
2022-08-26T05:33:56.924Z,6.65
2022-08-26T05:36:27.214Z,7.40
2022-08-26T05:38:56.372Z,7.20
2022-08-26T05:41:34.601Z,6.85
2022-08-26T05:44:07.577Z,6.78
2022-08-26T05:46:39.038Z,6.72
2022-08-26T05:49:12.680Z,7.35
2022-08-26T05:51:42.194Z,7.43
2022-08-26T05:54:10.768Z,7.07
2022-08-26T05:56:39.864Z,7.07
2022-08-26T05:59:14.314Z,7.82
2022-08-26T06:01:45.213Z,7.82
2022-08-26T06:04:13.921Z,7.82
2022-08-26T06:06:43.027Z,7.35
2022-08-26T06:09:13.242Z,7.00
2022-08-26T06:11:41.409Z,7.80
2022-08-26T06:14:11.865Z,7.07
2022-08-26T06:16:43.861Z,7.80
2022-08-26T06:19:17.397Z,7.03
2022-08-26T06:21:53.959Z,7.07
2022-08-26T06:24:40.046Z,7.10
2022-08-26T06:37:07.374Z,7.30
2022-08-26T06:39:35.810Z,6.75
2022-08-26T06:42:11.899Z,6.07
2022-08-26T06:44:41.767Z,6.20
2022-08-26T06:47:12.963Z,6.63
2022-08-26T06:49:42.531Z,6.32
2022-08-26T06:52:12.551Z,6.70
2022-08-26T06:54:43.202Z,6.50
2022-08-26T06:57:13.206Z,6.30
2022-08-26T06:59:42.615Z,6.28
2022-08-26T07:02:10.910Z,6.15
2022-08-26T07:04:44.541Z,5.85
2022-08-26T07:07:17.027Z,6.68
2022-08-26T07:09:45.984Z,5.97
2022-08-26T07:12:14.202Z,6.22
2022-08-26T07:14:47.336Z,5.65
2022-08-26T07:17:16.587Z,7.03
2022-08-26T07:19:46.146Z,6.25
2022-08-26T07:22:14.336Z,6.35
2022-08-26T07:24:42.741Z,6.20
2022-08-26T07:27:15.104Z,6.80
2022-08-26T07:29:44.957Z,6.53
2022-08-26T07:32:14.606Z,5.55
2022-08-26T07:34:43.622Z,6.20
2022-08-26T07:37:13.204Z,6.45
2022-08-26T07:39:43.157Z,6.18
2022-08-26T07:42:13.215Z,6.65
2022-08-26T07:44:42.924Z,6.70
2022-08-26T07:47:25.613Z,5.93
2022-08-26T07:49:56.186Z,6.55
2022-08-26T07:52:28.164Z,5.97
2022-08-26T07:54:57.235Z,5.80
2022-08-26T07:57:26.315Z,6.10
2022-08-26T07:59:55.033Z,5.82
2022-08-26T08:02:24.863Z,5.70
2022-08-26T08:04:53.233Z,6.80
2022-08-26T08:07:21.526Z,6.22
2022-08-26T08:10:11.620Z,6.35
2022-08-26T08:12:40.446Z,6.15
2022-08-26T08:15:13.806Z,5.88
2022-08-26T08:17:43.045Z,6.20
2022-08-26T08:20:12.994Z,5.97
2022-08-26T08:22:42.184Z,5.95
2022-08-26T08:25:13.344Z,5.95
2022-08-26T08:27:43.502Z,5.45
2022-08-26T08:30:13.748Z,5.65
2022-08-26T08:32:43.677Z,5.28
2022-08-26T08:35:14.097Z,5.15
2022-08-26T08:37:43.765Z,5.47
2022-08-26T08:40:18.591Z,5.70
2022-08-26T08:42:48.905Z,5.53
2022-08-26T08:45:23.584Z,5.57
2022-08-26T08:47:54.840Z,5.15
2022-08-26T08:50:27.447Z,4.53
2022-08-26T08:53:04.285Z,5.10
2022-08-26T08:55:50.213Z,5.10
2022-08-26T08:58:22.274Z,5.13
2022-08-26T09:00:55.740Z,4.68
2022-08-26T09:03:37.947Z,5.13
2022-08-26T09:06:17.091Z,5.22
2022-08-26T09:08:50.168Z,5.50
2022-08-26T09:11:21.285Z,4.75
2022-08-26T09:13:52.989Z,5.28
2022-08-26T09:16:26.237Z,4.90
2022-08-26T09:19:15.390Z,4.47
2022-08-26T09:21:47.478Z,4.85
2022-08-26T09:24:22.248Z,4.97
2022-08-26T09:26:52.927Z,4.80
2022-08-26T09:29:24.439Z,4.43
2022-08-26T09:31:54.105Z,4.63
2022-08-26T09:34:24.475Z,4.47
2022-08-26T09:36:54.885Z,4.18
2022-08-26T09:39:30.904Z,5.13
2022-08-26T09:42:14.165Z,4.47
2022-08-26T09:44:57.825Z,4.40
2022-08-26T09:47:30.329Z,4.72
2022-08-26T09:50:04.724Z,4.25
2022-08-26T09:52:38.305Z,4.72
2022-08-26T09:55:14.794Z,4.63
2022-08-26T09:57:51.221Z,5.20
2022-08-26T10:00:30.453Z,4.50
2022-08-26T10:03:00.113Z,4.35
2022-08-26T10:05:32.734Z,4.50
2022-08-26T10:08:01.835Z,4.40
2022-08-26T10:10:39.281Z,4.05
2022-08-26T10:13:15.284Z,4.60
2022-08-26T10:15:50.645Z,4.38
2022-08-26T10:18:24.787Z,3.85
2022-08-26T10:20:59.173Z,5.13
2022-08-26T10:23:32.475Z,4.78
2022-08-26T10:26:05.814Z,3.95
2022-08-26T10:28:42.477Z,4.10
2022-08-26T10:31:27.813Z,4.60
2022-08-26T10:34:00.487Z,4.63
2022-08-26T10:37:10.533Z,4.05
2022-08-26T10:39:46.030Z,4.45
2022-08-26T10:42:20.737Z,4.47
2022-08-26T10:44:53.244Z,3.95
2022-08-26T10:47:32.761Z,4.15
2022-08-26T10:50:03.385Z,4.00
2022-08-26T10:52:47.767Z,3.72
2022-08-26T10:55:24.186Z,4.13
2022-08-26T10:58:04.733Z,3.53
2022-08-26T11:01:01.089Z,4.30
2022-08-26T11:03:39.053Z,4.25
2022-08-26T11:06:25.094Z,4.75
2022-08-26T11:08:55.690Z,4.68
2022-08-26T11:11:48.063Z,4.57
2022-08-26T11:14:40.725Z,4.25
2022-08-26T11:17:55.473Z,4.43
2022-08-26T11:20:37.446Z,4.10
2022-08-26T11:23:40.357Z,4.25
2022-08-26T11:26:35.433Z,5.18
2022-08-26T11:29:12.953Z,4.85
2022-08-26T11:31:59.860Z,4.75
2022-08-26T11:34:56.319Z,4.32
2022-08-26T11:37:32.427Z,3.90
2022-08-26T11:40:04.143Z,4.40
2022-08-26T11:42:37.254Z,4.53
2022-08-26T11:45:19.390Z,4.15
2022-08-26T11:47:49.370Z,4.10
2022-08-26T11:50:23.510Z,3.80
2022-08-26T11:52:54.974Z,4.30
2022-08-26T11:55:24.306Z,3.88
2022-08-26T11:57:55.853Z,3.88
2022-08-26T12:00:27.705Z,4.63
2022-08-26T12:03:04.059Z,4.18
2022-08-26T12:05:38.204Z,3.95
2022-08-26T12:08:12.845Z,4.60
2022-08-26T12:10:41.007Z,4.10
2022-08-26T12:13:10.143Z,3.97
2022-08-26T12:15:38.723Z,4.10
2022-08-26T12:18:29.261Z,4.28
2022-08-26T12:21:01.703Z,4.28
2022-08-26T12:23:43.987Z,3.92
2022-08-26T12:26:20.670Z,3.72
2022-08-26T12:28:54.013Z,4.30
2022-08-26T12:31:26.151Z,3.90
2022-08-26T12:33:56.304Z,3.97
2022-08-26T12:36:31.708Z,3.63
2022-08-26T12:39:09.953Z,4.05
2022-08-26T12:41:56.555Z,3.58
2022-08-26T12:44:53.454Z,3.58
2022-08-26T12:47:33.850Z,4.18
2022-08-26T12:50:17.608Z,3.97
2022-08-26T12:52:59.924Z,3.85
2022-08-26T12:55:39.216Z,3.80
2022-08-26T12:58:30.137Z,3.90
2022-08-26T13:01:00.054Z,4.05
2022-08-26T13:03:44.998Z,3.53
2022-08-26T13:06:28.023Z,4.10
2022-08-26T13:08:59.226Z,3.42
2022-08-26T13:11:32.514Z,3.53
2022-08-26T13:14:02.596Z,3.67
2022-08-26T13:16:35.625Z,3.90
2022-08-26T13:19:10.076Z,3.42
2022-08-26T13:21:43.247Z,4.18
2022-08-26T13:24:14.224Z,4.65
2022-08-26T13:26:47.189Z,3.55
2022-08-26T13:29:15.725Z,3.65
2022-08-26T13:31:47.270Z,3.78
2022-08-26T13:34:19.492Z,3.80
2022-08-26T13:36:48.396Z,3.53
2022-08-26T13:39:17.504Z,3.55
2022-08-26T13:41:47.339Z,3.53
2022-08-26T13:44:15.532Z,3.92
2022-08-26T13:46:46.671Z,4.03
2022-08-26T13:49:15.436Z,3.60
2022-08-26T13:51:43.593Z,3.53
2022-08-26T13:54:11.758Z,3.53
2022-08-26T13:56:40.170Z,3.40
2022-08-26T13:59:10.094Z,3.45
2022-08-26T14:01:38.371Z,3.03
2022-08-26T14:04:06.567Z,3.47
2022-08-26T14:06:34.752Z,3.75
2022-08-26T14:09:02.964Z,3.53
2022-08-26T14:11:41.217Z,3.90
2022-08-26T14:14:20.752Z,4.00
2022-08-26T14:16:59.072Z,3.38
2022-08-26T14:19:29.743Z,3.88
2022-08-26T14:22:01.051Z,3.65
2022-08-26T14:24:29.507Z,3.67
2022-08-26T14:26:57.713Z,3.47
2022-08-26T14:29:27.355Z,3.90
2022-08-26T14:31:58.887Z,3.55
2022-08-26T14:34:27.275Z,3.65
2022-08-26T14:36:55.506Z,3.80
2022-08-26T14:39:23.687Z,3.70
2022-08-26T14:41:56.157Z,3.60
2022-08-26T14:44:29.208Z,3.58
2022-08-26T14:46:58.417Z,3.80
2022-08-26T14:49:27.480Z,4.18
2022-08-26T14:51:55.876Z,4.22
2022-08-26T14:54:23.215Z,3.92
2022-08-26T14:56:53.411Z,3.53
2022-08-26T14:59:23.613Z,4.05
2022-08-26T15:01:53.773Z,3.33
2022-08-26T15:04:23.178Z,3.88
2022-08-26T15:06:52.589Z,3.13
2022-08-26T15:09:20.835Z,3.95
2022-08-26T15:11:49.096Z,3.75
2022-08-26T15:14:20.096Z,3.95
2022-08-26T15:16:49.108Z,3.00
2022-08-26T15:19:19.341Z,3.65
2022-08-26T15:21:47.766Z,4.05
2022-08-26T15:24:18.605Z,4.35
2022-08-26T15:26:47.556Z,3.83
2022-08-26T15:29:16.415Z,3.67
2022-08-26T15:31:44.811Z,4.55
2022-08-26T15:34:16.785Z,3.97
2022-08-26T15:36:48.034Z,3.75
2022-08-26T15:39:17.652Z,4.60
2022-08-26T15:41:46.036Z,3.90
2022-08-26T15:44:17.063Z,4.25
2022-08-26T15:46:45.629Z,3.60
2022-08-26T15:49:18.297Z,3.85
2022-08-26T15:51:52.922Z,4.03
2022-08-26T15:54:23.893Z,3.75
2022-08-26T15:56:53.921Z,3.92
2022-08-26T15:59:23.178Z,4.38
2022-08-26T16:01:52.340Z,4.38
2022-08-26T16:04:20.776Z,3.40
2022-08-26T16:06:52.281Z,3.83
2022-08-26T16:09:23.862Z,4.20
2022-08-26T16:11:52.374Z,3.72
2022-08-26T16:14:20.586Z,3.88
2022-08-26T16:16:48.794Z,4.03
2022-08-26T16:19:16.990Z,3.80
2022-08-26T16:21:45.994Z,4.47
2022-08-26T16:24:15.678Z,4.35
2022-08-26T16:26:45.394Z,3.78
2022-08-26T16:29:17.111Z,3.30
2022-08-26T16:31:45.355Z,3.08
2022-08-26T16:34:13.534Z,3.65
2022-08-26T16:36:41.734Z,4.43
2022-08-26T16:39:10.879Z,3.63
2022-08-26T16:41:40.645Z,3.80
2022-08-26T16:44:09.554Z,4.07
2022-08-26T16:46:39.825Z,3.78
2022-08-26T16:49:08.133Z,3.67
2022-08-26T16:51:38.057Z,3.22
2022-08-26T16:54:07.670Z,4.10
2022-08-26T16:56:37.354Z,3.35
2022-08-26T16:59:10.635Z,3.78
2022-08-26T17:01:39.214Z,3.72
2022-08-26T17:04:07.454Z,4.30
2022-08-26T17:06:35.648Z,3.78
2022-08-26T17:09:04.366Z,3.28
2022-08-26T17:11:33.201Z,3.35
2022-08-26T17:14:01.373Z,2.80
2022-08-26T17:16:31.087Z,3.63
2022-08-26T17:19:00.696Z,3.85
2022-08-26T17:21:29.823Z,3.95
2022-08-26T17:23:58.098Z,3.55
2022-08-26T17:26:26.425Z,4.07
2022-08-26T17:28:55.276Z,3.88
2022-08-26T17:31:25.083Z,3.70
2022-08-26T17:33:55.613Z,3.90
2022-08-26T17:36:28.134Z,3.85
2022-08-26T17:38:57.878Z,3.95
2022-08-26T17:41:26.814Z,3.75
2022-08-26T17:43:55.164Z,3.47
2022-08-26T17:46:23.750Z,4.03
2022-08-26T17:48:52.135Z,3.63
2022-08-26T17:51:23.654Z,3.85
2022-08-26T17:53:52.834Z,3.90
2022-08-26T17:56:25.675Z,3.97
2022-08-26T17:58:56.845Z,4.25
2022-08-26T18:01:27.578Z,3.83
2022-08-26T18:04:00.260Z,4.03
2022-08-26T18:06:31.613Z,3.47
2022-08-26T18:09:00.215Z,3.70
2022-08-26T18:11:29.104Z,3.97
2022-08-26T18:13:57.315Z,3.95
2022-08-26T18:16:25.815Z,4.03
2022-08-26T18:18:54.728Z,3.63
2022-08-26T18:21:24.805Z,4.07
2022-08-26T18:23:55.493Z,4.35
2022-08-26T18:26:26.174Z,3.95
2022-08-26T18:28:54.947Z,3.97
2022-08-26T18:31:23.204Z,4.38
2022-08-26T18:33:51.995Z,4.30
2022-08-26T18:36:21.985Z,4.30
2022-08-26T18:38:51.324Z,5.13
2022-08-26T18:41:23.000Z,4.15
2022-08-26T18:43:53.251Z,5.10
2022-08-26T18:46:25.309Z,4.93
2022-08-26T18:48:54.947Z,5.18
2022-08-26T18:51:25.436Z,5.50
2022-08-26T18:53:54.404Z,6.45
2022-08-26T18:56:24.164Z,6.72
2022-08-26T18:58:54.326Z,6.32
2022-08-26T19:01:27.148Z,15.10
2022-08-26T19:03:57.032Z,13.05
2022-08-26T19:06:27.447Z,8.65
2022-08-26T19:08:57.954Z,9.95
2022-08-26T19:11:37.252Z,7.97
2022-08-26T19:14:13.286Z,7.65
2022-08-26T19:16:43.057Z,7.97
2022-08-26T19:19:11.790Z,9.10
2022-08-26T19:21:40.988Z,8.77
2022-08-26T19:24:15.835Z,8.90
2022-08-26T19:26:46.674Z,7.05
2022-08-26T19:31:47.248Z,7.28
2022-08-26T19:34:18.241Z,5.97
2022-08-26T19:36:49.795Z,5.35
2022-08-26T19:39:18.305Z,5.55
2022-08-26T19:41:48.537Z,5.93
2022-08-26T19:44:40.365Z,6.97
2022-08-26T19:47:09.955Z,6.60
2022-08-26T19:49:40.096Z,6.43
2022-08-26T19:52:08.914Z,5.47
2022-08-26T19:54:37.489Z,5.40
2022-08-26T19:57:07.756Z,5.45
2022-08-26T19:59:36.858Z,5.45
2022-08-26T20:02:10.029Z,5.25
2022-08-26T20:04:39.420Z,5.30
2022-08-26T20:07:08.024Z,5.55
2022-08-26T20:09:37.160Z,5.03
2022-08-26T20:12:08.494Z,4.05
2022-08-26T20:14:38.384Z,3.95
2022-08-26T20:17:07.657Z,3.97
2022-08-26T20:19:54.039Z,4.43
2022-08-26T20:22:24.423Z,3.95
2022-08-26T20:24:53.388Z,4.18
2022-08-26T20:27:37.753Z,3.90
2022-08-26T20:30:10.609Z,3.95
2022-08-26T20:32:39.936Z,4.45
2022-08-26T20:35:11.444Z,4.88
2022-08-26T20:37:40.771Z,4.00
2022-08-26T20:40:10.680Z,3.92
2022-08-26T20:42:40.832Z,3.72
2022-08-26T20:45:10.358Z,4.80
2022-08-26T20:47:38.855Z,4.30
2022-08-26T20:50:08.760Z,4.82
2022-08-26T20:52:37.249Z,4.25
2022-08-26T20:55:06.057Z,4.57
2022-08-26T20:57:34.318Z,4.43
2022-08-26T21:00:05.032Z,4.22
2022-08-26T21:02:33.319Z,4.75
2022-08-26T21:05:01.765Z,5.03
2022-08-26T21:07:30.467Z,4.35
2022-08-26T21:09:58.748Z,4.22
2022-08-26T21:12:27.989Z,4.60
2022-08-26T21:14:56.476Z,3.95
2022-08-26T21:17:26.084Z,4.18
2022-08-26T21:19:54.552Z,3.83
2022-08-26T21:22:23.156Z,4.38
2022-08-26T21:24:51.425Z,3.97
2022-08-26T21:27:26.100Z,4.07
2022-08-26T21:29:55.105Z,4.78
2022-08-26T21:32:23.416Z,4.45
2022-08-26T21:34:56.011Z,4.05
2022-08-26T21:37:25.067Z,4.55
2022-08-26T21:39:55.567Z,4.35
2022-08-26T21:42:24.535Z,4.18
2022-08-26T21:44:54.618Z,4.55
2022-08-26T21:47:23.306Z,4.68
2022-08-26T21:49:53.425Z,4.22
2022-08-26T21:52:22.701Z,4.53
2022-08-26T21:54:51.080Z,4.93
2022-08-26T21:57:19.636Z,4.30
2022-08-26T21:59:47.903Z,4.35
2022-08-26T22:02:16.260Z,4.82
2022-08-26T22:04:48.557Z,4.30
2022-08-26T22:07:20.011Z,5.10
2022-08-26T22:09:48.834Z,5.20
2022-08-26T22:12:18.497Z,4.47
2022-08-26T22:14:47.281Z,4.18
2022-08-26T22:17:17.137Z,4.22
2022-08-26T22:19:46.065Z,3.90
2022-08-26T22:22:16.174Z,4.20
2022-08-26T22:24:45.858Z,4.35
2022-08-26T22:27:15.175Z,4.15
2022-08-26T22:29:43.571Z,4.22
2022-08-26T22:32:11.817Z,4.30
2022-08-26T22:34:40.684Z,4.45
2022-08-26T22:37:09.460Z,4.45
2022-08-26T22:39:38.164Z,4.60
2022-08-26T22:42:07.946Z,4.40
2022-08-26T22:44:37.711Z,4.53
2022-08-26T22:47:06.259Z,5.45
2022-08-26T22:49:34.540Z,4.50
2022-08-26T22:52:02.878Z,4.93
2022-08-26T22:54:31.065Z,4.43
2022-08-26T22:56:59.325Z,4.68
2022-08-26T22:59:30.251Z,4.70
2022-08-26T23:01:58.542Z,4.70
2022-08-26T23:04:26.963Z,5.18
2022-08-26T23:06:55.160Z,4.30
2022-08-26T23:09:23.465Z,4.32
2022-08-26T23:11:51.793Z,4.95
2022-08-26T23:14:20.256Z,4.40
2022-08-26T23:16:50.188Z,5.00
2022-08-26T23:19:21.462Z,4.82
2022-08-26T23:21:50.233Z,4.70
2022-08-26T23:24:18.854Z,4.82
2022-08-26T23:26:47.734Z,4.57
2022-08-26T23:29:16.569Z,4.78
2022-08-26T23:31:45.446Z,4.57
2022-08-26T23:34:33.257Z,4.97
2022-08-26T23:37:01.727Z,4.22
2022-08-26T23:39:30.673Z,4.55
2022-08-26T23:42:01.764Z,4.95
2022-08-26T23:44:31.583Z,4.22
2022-08-26T23:47:00.836Z,4.90
2022-08-26T23:49:30.905Z,5.25
2022-08-26T23:52:16.459Z,5.05
2022-08-26T23:54:45.478Z,5.32
2022-08-26T23:57:13.809Z,4.95
2022-08-26T23:59:42.800Z,5.45
